createdAt,value
2023-05-11T00:00:37.760Z,14.13
2023-05-11T00:03:04.827Z,14.00
2023-05-11T00:05:31.655Z,14.07
2023-05-11T00:07:58.423Z,14.11
2023-05-11T00:10:25.215Z,14.10
2023-05-11T00:12:52.035Z,14.10
2023-05-11T00:15:19.004Z,14.08
2023-05-11T00:17:45.921Z,14.07
2023-05-11T00:20:12.765Z,13.91
2023-05-11T00:22:39.630Z,13.95
2023-05-11T00:25:07.200Z,14.02
2023-05-11T00:27:33.989Z,14.00
2023-05-11T00:30:00.873Z,14.00
2023-05-11T00:32:27.724Z,13.96
2023-05-11T00:34:54.523Z,13.98
2023-05-11T00:37:21.328Z,13.97
2023-05-11T00:39:48.168Z,13.97
2023-05-11T00:42:14.980Z,13.91
2023-05-11T00:44:41.746Z,13.85
2023-05-11T00:47:09.429Z,13.77
2023-05-11T00:49:36.307Z,13.75
2023-05-11T00:52:03.393Z,13.93
2023-05-11T00:54:31.549Z,13.91
2023-05-11T00:56:58.391Z,13.83
2023-05-11T00:59:25.441Z,13.92
2023-05-11T01:01:52.306Z,13.87
2023-05-11T01:04:19.401Z,13.92
2023-05-11T01:07:19.653Z,13.92
2023-05-11T01:10:24.217Z,13.89
2023-05-11T01:13:08.571Z,13.88
2023-05-11T01:15:56.390Z,13.89
2023-05-11T01:18:42.536Z,13.87
2023-05-11T01:21:15.338Z,13.85
2023-05-11T01:24:27.093Z,13.86
2023-05-11T01:27:07.898Z,13.84
2023-05-11T01:30:13.566Z,13.84
2023-05-11T01:32:43.047Z,13.85
2023-05-11T01:35:21.374Z,13.57
2023-05-11T01:37:53.383Z,13.84
2023-05-11T01:40:26.165Z,13.86
2023-05-11T01:43:05.012Z,13.84
2023-05-11T01:45:36.963Z,13.81
2023-05-11T01:48:11.984Z,13.84
2023-05-11T01:50:39.547Z,13.75
2023-05-11T01:53:07.645Z,13.70
2023-05-11T01:55:38.110Z,13.78
2023-05-11T01:58:09.015Z,13.75
2023-05-11T02:00:36.585Z,13.78
2023-05-11T02:03:06.660Z,13.66
2023-05-11T02:05:34.981Z,13.79
2023-05-11T02:08:05.559Z,13.83
2023-05-11T02:10:33.253Z,13.72
2023-05-11T02:13:02.167Z,13.82
2023-05-11T02:15:29.085Z,13.77
2023-05-11T02:17:56.606Z,13.81
2023-05-11T02:20:24.511Z,13.73
2023-05-11T02:22:53.568Z,13.80
2023-05-11T02:25:21.394Z,13.79
2023-05-11T02:27:48.344Z,13.79
2023-05-11T02:30:15.417Z,13.79
2023-05-11T02:32:49.588Z,13.77
2023-05-11T02:35:23.752Z,13.77
2023-05-11T02:37:54.331Z,13.69
2023-05-11T02:40:35.108Z,13.79
2023-05-11T02:43:10.694Z,13.77
2023-05-11T02:45:38.967Z,13.78
2023-05-11T02:48:10.011Z,13.80
2023-05-11T02:50:41.064Z,13.80
2023-05-11T02:53:14.812Z,13.74
2023-05-11T02:55:42.881Z,13.79
2023-05-11T02:58:09.980Z,13.76
2023-05-11T03:00:38.815Z,13.75
2023-05-11T03:03:05.883Z,13.63
2023-05-11T03:05:32.860Z,13.71
2023-05-11T03:08:00.316Z,13.73
2023-05-11T03:10:28.984Z,13.69
2023-05-11T03:12:56.352Z,13.73
2023-05-11T03:15:24.173Z,13.78
2023-05-11T03:17:52.338Z,13.78
2023-05-11T03:20:22.293Z,13.76
2023-05-11T03:22:50.520Z,13.75
2023-05-11T03:25:18.515Z,13.67
2023-05-11T03:27:46.496Z,13.67
2023-05-11T03:30:16.071Z,13.66
2023-05-11T03:32:43.401Z,13.72
2023-05-11T03:35:10.658Z,13.70
2023-05-11T03:37:38.887Z,13.72
2023-05-11T03:40:07.757Z,13.71
2023-05-11T03:42:36.445Z,13.70
2023-05-11T03:45:05.932Z,13.70
2023-05-11T03:47:34.291Z,13.68
2023-05-11T03:50:02.819Z,13.66
2023-05-11T03:52:30.656Z,13.69
2023-05-11T03:54:57.572Z,13.67
2023-05-11T03:57:27.855Z,13.72
2023-05-11T03:59:54.672Z,13.72
2023-05-11T04:02:24.341Z,13.73
2023-05-11T04:04:53.021Z,13.73
2023-05-11T04:07:20.350Z,13.75
2023-05-11T04:09:47.190Z,13.70
2023-05-11T04:12:13.991Z,13.72
2023-05-11T04:14:40.751Z,13.66
2023-05-11T04:17:07.612Z,13.69
2023-05-11T04:19:34.420Z,13.70
2023-05-11T04:22:01.210Z,13.75
2023-05-11T04:24:28.032Z,13.75
2023-05-11T04:26:57.904Z,13.74
2023-05-11T04:29:25.563Z,13.73
2023-05-11T04:31:52.831Z,13.71
2023-05-11T04:34:19.719Z,13.61
2023-05-11T04:36:50.970Z,13.70
2023-05-11T04:39:18.446Z,13.72
2023-05-11T04:41:45.362Z,13.69
2023-05-11T04:44:12.309Z,13.69
2023-05-11T04:46:39.175Z,13.59
2023-05-11T04:49:06.263Z,13.72
2023-05-11T04:51:33.174Z,13.73
2023-05-11T04:53:59.994Z,13.65
2023-05-11T04:56:26.823Z,13.72
2023-05-11T04:58:53.621Z,13.72
2023-05-11T05:01:20.585Z,13.70
2023-05-11T05:03:50.662Z,13.59
2023-05-11T05:06:17.593Z,13.68
2023-05-11T05:08:44.407Z,13.72
2023-05-11T05:11:11.233Z,13.71
2023-05-11T05:13:38.115Z,13.70
2023-05-11T05:16:05.203Z,13.74
2023-05-11T05:18:32.018Z,13.76
2023-05-11T05:20:58.878Z,13.77
2023-05-11T05:23:26.342Z,13.80
2023-05-11T05:25:53.373Z,13.80
2023-05-11T05:28:21.019Z,13.80
2023-05-11T05:30:47.897Z,13.81
2023-05-11T05:33:14.821Z,13.80
2023-05-11T05:35:43.790Z,13.82
2023-05-11T05:38:10.800Z,13.75
2023-05-11T05:40:39.370Z,13.87
2023-05-11T05:43:06.740Z,13.89
2023-05-11T05:45:33.633Z,13.91
2023-05-11T05:48:00.784Z,13.85
2023-05-11T05:50:28.003Z,13.93
2023-05-11T05:52:55.051Z,13.96
2023-05-11T05:55:22.316Z,13.99
2023-05-11T05:57:49.241Z,14.03
2023-05-11T06:00:16.803Z,13.96
2023-05-11T06:02:44.044Z,14.08
2023-05-11T06:05:11.078Z,14.00
2023-05-11T06:07:38.198Z,14.11
2023-05-11T06:10:05.655Z,14.12
2023-05-11T06:12:32.490Z,14.03
2023-05-11T06:14:59.339Z,14.14
2023-05-11T06:17:28.280Z,14.10
2023-05-11T06:19:55.241Z,14.12
2023-05-11T06:22:22.536Z,14.16
2023-05-11T06:24:49.395Z,14.10
2023-05-11T06:27:18.075Z,14.18
2023-05-11T06:29:45.674Z,14.17
2023-05-11T06:32:12.558Z,14.05
2023-05-11T06:34:39.498Z,14.19
2023-05-11T06:37:06.453Z,14.20
2023-05-11T06:39:37.542Z,14.22
2023-05-11T06:42:06.558Z,14.14
2023-05-11T06:44:34.463Z,14.14
2023-05-11T06:47:01.327Z,14.11
2023-05-11T06:49:28.712Z,14.19
2023-05-11T06:51:55.711Z,14.19
2023-05-11T06:54:22.649Z,14.09
2023-05-11T06:56:49.634Z,14.11
2023-05-11T06:59:16.638Z,14.15
2023-05-11T07:01:43.815Z,14.24
2023-05-11T07:04:10.883Z,14.23
2023-05-11T07:06:37.826Z,14.26
2023-05-11T07:09:04.878Z,14.21
2023-05-11T07:11:32.173Z,14.25
2023-05-11T07:13:59.110Z,14.28
2023-05-11T07:16:26.304Z,14.30
2023-05-11T07:18:53.332Z,14.31
2023-05-11T07:21:22.146Z,14.24
2023-05-11T07:23:49.009Z,14.34
2023-05-11T07:26:15.829Z,14.37
2023-05-11T07:28:42.661Z,14.38
2023-05-11T07:31:09.519Z,14.39
2023-05-11T07:33:39.349Z,14.32
2023-05-11T07:36:07.346Z,14.24
2023-05-11T07:38:34.188Z,14.30
2023-05-11T07:41:01.155Z,14.31
2023-05-11T07:43:28.122Z,14.35
2023-05-11T07:45:55.116Z,14.24
2023-05-11T07:48:22.305Z,14.21
2023-05-11T07:50:51.840Z,14.32
2023-05-11T07:53:18.789Z,14.32
2023-05-11T07:55:45.624Z,14.31
2023-05-11T07:58:12.563Z,14.32
2023-05-11T08:00:39.476Z,14.25
2023-05-11T08:03:06.551Z,14.30
2023-05-11T08:05:37.354Z,14.21
2023-05-11T08:08:05.162Z,14.14
2023-05-11T08:10:32.090Z,14.11
2023-05-11T08:12:59.597Z,14.08
2023-05-11T08:15:26.397Z,14.15
2023-05-11T08:17:54.244Z,14.14
2023-05-11T08:20:21.461Z,14.06
2023-05-11T08:22:48.650Z,14.14
2023-05-11T08:25:16.412Z,14.11
2023-05-11T08:27:43.578Z,14.16
2023-05-11T08:30:11.892Z,14.18
2023-05-11T08:32:57.142Z,14.15
2023-05-11T08:35:25.824Z,14.17
2023-05-11T08:37:52.647Z,13.99
2023-05-11T08:40:21.815Z,14.08
2023-05-11T08:42:54.121Z,14.01
2023-05-11T08:45:22.695Z,14.14
2023-05-11T08:47:49.955Z,14.04
2023-05-11T08:50:17.030Z,14.10
2023-05-11T08:52:43.915Z,14.14
2023-05-11T08:55:11.129Z,14.10
2023-05-11T08:57:39.220Z,14.07
2023-05-11T09:00:07.852Z,14.01
2023-05-11T09:02:35.757Z,14.11
2023-05-11T09:05:04.428Z,14.07
2023-05-11T09:07:33.995Z,14.10
2023-05-11T09:10:01.464Z,13.91
2023-05-11T09:12:28.683Z,14.11
2023-05-11T09:15:01.967Z,14.07
2023-05-11T09:17:29.043Z,14.01
2023-05-11T09:20:05.558Z,14.03
2023-05-11T09:22:36.611Z,14.09
2023-05-11T09:25:04.803Z,14.12
2023-05-11T09:27:32.350Z,13.94
2023-05-11T09:30:12.573Z,14.00
2023-05-11T09:33:00.501Z,14.05
2023-05-11T09:35:33.372Z,14.02
2023-05-11T09:38:12.835Z,14.09
2023-05-11T09:40:52.190Z,14.13
2023-05-11T09:43:27.657Z,14.05
2023-05-11T09:45:57.736Z,14.11
2023-05-11T09:48:28.457Z,14.13
2023-05-11T09:51:07.452Z,14.14
2023-05-11T09:53:46.033Z,14.18
2023-05-11T09:56:15.445Z,14.14
2023-05-11T09:58:55.232Z,14.18
2023-05-11T10:01:33.824Z,14.22
2023-05-11T10:04:09.560Z,14.18
2023-05-11T10:06:52.793Z,14.28
2023-05-11T10:09:24.819Z,14.25
2023-05-11T10:11:53.605Z,14.20
2023-05-11T10:14:21.858Z,14.27
2023-05-11T10:16:48.803Z,14.22
2023-05-11T10:19:16.603Z,14.30
2023-05-11T10:21:44.087Z,14.31
2023-05-11T10:24:11.712Z,14.37
2023-05-11T10:26:38.980Z,14.41
2023-05-11T10:29:05.959Z,14.45
2023-05-11T10:31:33.528Z,14.41
2023-05-11T10:34:01.848Z,14.38
2023-05-11T10:36:29.189Z,14.42
2023-05-11T10:38:56.388Z,14.31
2023-05-11T10:42:16.851Z,14.32
2023-05-11T10:45:21.769Z,14.34
2023-05-11T10:48:09.680Z,14.31
2023-05-11T10:50:45.113Z,14.27
2023-05-11T10:53:56.766Z,14.31
2023-05-11T10:56:57.358Z,14.25
2023-05-11T10:59:58.266Z,14.27
2023-05-11T11:02:31.737Z,14.30
2023-05-11T11:05:02.178Z,14.33
2023-05-11T11:07:29.179Z,14.32
2023-05-11T11:10:05.170Z,14.24
2023-05-11T11:12:35.047Z,14.25
2023-05-11T11:15:07.220Z,14.31
2023-05-11T11:17:36.141Z,14.19
2023-05-11T11:20:08.604Z,14.30
2023-05-11T11:22:35.531Z,14.31
2023-05-11T11:25:07.744Z,14.33
2023-05-11T11:27:40.587Z,14.31
2023-05-11T11:30:26.566Z,14.38
2023-05-11T11:33:07.016Z,14.40
2023-05-11T11:35:39.864Z,14.41
2023-05-11T11:38:08.685Z,14.37
2023-05-11T11:40:50.747Z,14.48
2023-05-11T11:43:44.634Z,14.45
2023-05-11T11:46:27.228Z,14.46
2023-05-11T11:49:08.263Z,14.50
2023-05-11T11:51:40.554Z,14.50
2023-05-11T11:54:07.748Z,14.45
2023-05-11T11:56:39.054Z,14.53
2023-05-11T11:59:10.129Z,14.56
2023-05-11T12:01:39.637Z,14.60
2023-05-11T12:04:25.605Z,14.55
2023-05-11T12:06:58.343Z,14.49
2023-05-11T12:09:27.078Z,14.61
2023-05-11T12:11:54.079Z,14.51
2023-05-11T12:14:22.129Z,14.57
2023-05-11T12:17:08.192Z,14.59
2023-05-11T12:19:35.479Z,14.61
2023-05-11T12:22:02.328Z,14.63
2023-05-11T12:24:29.296Z,14.63
2023-05-11T12:26:57.522Z,14.65
2023-05-11T12:29:24.790Z,14.68
2023-05-11T12:31:51.711Z,14.69
2023-05-11T12:34:22.723Z,14.60
2023-05-11T12:36:52.340Z,14.62
2023-05-11T12:39:27.718Z,14.58
2023-05-11T12:41:56.176Z,14.66
2023-05-11T12:44:26.057Z,14.65
2023-05-11T12:46:53.548Z,14.64
2023-05-11T12:49:26.225Z,14.61
2023-05-11T12:51:59.620Z,14.73
2023-05-11T12:54:38.909Z,14.71
2023-05-11T12:57:08.444Z,14.74
2023-05-11T12:59:37.896Z,14.74
2023-05-11T13:02:11.944Z,14.78
2023-05-11T13:04:41.212Z,14.80
2023-05-11T13:07:08.678Z,14.79
2023-05-11T13:09:35.684Z,14.75
2023-05-11T13:12:18.971Z,14.82
2023-05-11T13:14:49.242Z,14.88
2023-05-11T13:17:37.442Z,14.87
2023-05-11T13:20:26.337Z,14.89
2023-05-11T13:23:25.771Z,14.93
2023-05-11T13:25:54.085Z,14.81
2023-05-11T13:28:24.131Z,14.83
2023-05-11T13:30:57.945Z,14.82
2023-05-11T13:33:24.836Z,14.90
2023-05-11T13:35:51.649Z,14.87
2023-05-11T13:38:18.462Z,14.90
2023-05-11T13:40:45.736Z,14.68
2023-05-11T13:43:12.589Z,14.84
2023-05-11T13:45:41.183Z,14.96
2023-05-11T13:48:08.732Z,14.96
2023-05-11T13:50:35.965Z,14.91
2023-05-11T13:53:02.905Z,14.96
2023-05-11T13:55:30.144Z,14.96
2023-05-11T13:57:57.927Z,14.96
2023-05-11T14:00:25.290Z,14.95
2023-05-11T14:02:52.894Z,14.95
2023-05-11T14:05:20.181Z,15.05
2023-05-11T14:07:48.630Z,15.09
2023-05-11T14:10:17.359Z,15.00
2023-05-11T14:12:45.387Z,15.09
2023-05-11T14:15:12.429Z,14.97
2023-05-11T14:17:41.614Z,14.99
2023-05-11T14:20:09.433Z,15.03
2023-05-11T14:22:36.376Z,14.99
2023-05-11T14:25:03.344Z,15.03
2023-05-11T14:27:30.209Z,14.95
2023-05-11T14:29:57.096Z,14.97
2023-05-11T14:32:23.899Z,15.00
2023-05-11T14:34:50.749Z,14.99
2023-05-11T14:37:17.536Z,14.95
2023-05-11T14:39:44.925Z,14.95
2023-05-11T14:42:11.766Z,14.94
2023-05-11T14:44:38.575Z,14.96
2023-05-11T14:47:05.964Z,15.07
2023-05-11T14:49:32.887Z,15.05
2023-05-11T14:51:59.870Z,14.99
2023-05-11T14:54:26.754Z,15.14
2023-05-11T14:56:55.730Z,15.19
2023-05-11T14:59:26.133Z,15.30
2023-05-11T15:01:53.538Z,15.26
2023-05-11T15:04:20.814Z,15.21
2023-05-11T15:06:48.006Z,15.14
2023-05-11T15:09:14.972Z,15.20
2023-05-11T15:11:41.928Z,15.26
2023-05-11T15:14:08.785Z,15.26
2023-05-11T15:16:35.740Z,15.17
2023-05-11T15:19:02.674Z,15.27
2023-05-11T15:21:29.612Z,15.26
2023-05-11T15:23:56.443Z,15.19
2023-05-11T15:26:23.254Z,15.37
2023-05-11T15:28:50.501Z,15.32
2023-05-11T15:31:17.478Z,15.36
2023-05-11T15:33:45.001Z,15.25
2023-05-11T15:36:13.989Z,15.23
2023-05-11T15:38:41.133Z,15.28
2023-05-11T15:41:08.089Z,15.37
2023-05-11T15:43:35.261Z,15.34
2023-05-11T15:46:03.657Z,15.20
2023-05-11T15:48:30.721Z,15.24
2023-05-11T15:51:00.037Z,15.26
2023-05-11T15:53:27.573Z,15.32
2023-05-11T15:55:55.510Z,15.36
2023-05-11T15:58:23.035Z,15.38
2023-05-11T16:00:50.302Z,15.32
2023-05-11T16:03:17.586Z,15.32
2023-05-11T16:05:45.491Z,15.31
2023-05-11T16:08:13.213Z,15.33
2023-05-11T16:10:40.338Z,15.30
2023-05-11T16:13:07.830Z,15.27
2023-05-11T16:15:34.725Z,15.28
2023-05-11T16:18:04.610Z,15.27
2023-05-11T16:20:32.193Z,15.19
2023-05-11T16:22:59.079Z,15.20
2023-05-11T16:25:25.924Z,15.08
2023-05-11T16:27:52.803Z,15.22
2023-05-11T16:30:25.119Z,15.22
2023-05-11T16:32:53.412Z,15.12
2023-05-11T16:35:20.884Z,15.14
2023-05-11T16:37:48.309Z,15.22
2023-05-11T16:40:19.051Z,15.21
2023-05-11T16:42:47.265Z,15.25
2023-05-11T16:45:15.000Z,15.25
2023-05-11T16:47:42.835Z,15.22
2023-05-11T16:50:10.750Z,15.13
2023-05-11T16:52:37.536Z,15.19
2023-05-11T16:55:04.943Z,15.11
2023-05-11T16:57:31.847Z,15.10
2023-05-11T16:59:58.681Z,14.98
2023-05-11T17:02:25.671Z,15.13
2023-05-11T17:04:52.874Z,15.16
2023-05-11T17:07:19.698Z,15.13
2023-05-11T17:09:46.516Z,15.11
2023-05-11T17:12:13.337Z,15.13
2023-05-11T17:14:40.139Z,15.06
2023-05-11T17:17:08.106Z,15.07
2023-05-11T17:19:34.961Z,15.05
2023-05-11T17:22:02.193Z,15.04
2023-05-11T17:24:29.024Z,15.02
2023-05-11T17:26:55.898Z,15.01
2023-05-11T17:29:23.079Z,15.00
2023-05-11T17:31:51.657Z,15.01
2023-05-11T17:34:19.736Z,15.06
2023-05-11T17:36:47.905Z,14.98
2023-05-11T17:39:16.312Z,15.07
2023-05-11T17:41:43.704Z,15.11
2023-05-11T17:44:10.653Z,15.11
2023-05-11T17:46:37.514Z,15.07
2023-05-11T17:49:05.976Z,15.06
2023-05-11T17:51:32.936Z,15.08
2023-05-11T17:53:59.728Z,14.93
2023-05-11T17:56:26.750Z,14.96
2023-05-11T17:58:53.535Z,15.07
2023-05-11T18:01:22.380Z,15.08
2023-05-11T18:03:49.601Z,15.06
2023-05-11T18:06:17.108Z,15.06
2023-05-11T18:08:43.916Z,15.04
2023-05-11T18:11:12.661Z,14.96
2023-05-11T18:13:39.855Z,15.08
2023-05-11T18:16:07.227Z,15.07
2023-05-11T18:18:34.420Z,15.06
2023-05-11T18:21:10.580Z,15.05
2023-05-11T18:23:38.275Z,15.05
2023-05-11T18:26:06.938Z,14.96
2023-05-11T18:28:33.854Z,15.01
2023-05-11T18:31:00.776Z,14.97
2023-05-11T18:33:27.621Z,15.01
2023-05-11T18:35:54.418Z,15.00
2023-05-11T18:38:21.337Z,14.99
2023-05-11T18:40:48.239Z,14.94
2023-05-11T18:43:15.083Z,14.88
2023-05-11T18:45:43.071Z,15.00
2023-05-11T18:48:09.953Z,14.98
2023-05-11T18:50:36.839Z,14.96
2023-05-11T18:53:03.674Z,14.96
2023-05-11T18:55:35.289Z,14.91
2023-05-11T18:58:05.321Z,14.92
2023-05-11T19:00:36.831Z,14.91
2023-05-11T19:03:04.055Z,14.92
2023-05-11T19:05:31.061Z,14.89
2023-05-11T19:07:57.873Z,14.88
2023-05-11T19:10:24.941Z,14.89
2023-05-11T19:12:51.771Z,14.79
2023-05-11T19:15:18.857Z,14.84
2023-05-11T19:17:45.844Z,14.86
2023-05-11T19:20:12.882Z,14.84
2023-05-11T19:22:39.755Z,14.80
2023-05-11T19:25:08.008Z,14.84
2023-05-11T19:27:35.010Z,14.83
2023-05-11T19:30:02.118Z,14.82
2023-05-11T19:32:29.050Z,14.78
2023-05-11T19:34:55.934Z,14.78
2023-05-11T19:37:22.777Z,14.75
2023-05-11T19:39:49.633Z,14.75
2023-05-11T19:42:18.001Z,14.66
2023-05-11T19:44:50.519Z,14.64
2023-05-11T19:47:18.612Z,14.67
2023-05-11T19:49:46.222Z,14.62
2023-05-11T19:52:13.631Z,14.65
2023-05-11T19:54:40.483Z,14.66
2023-05-11T19:57:07.329Z,14.62
2023-05-11T19:59:34.178Z,14.65
2023-05-11T20:02:02.708Z,14.61
2023-05-11T20:04:30.279Z,14.59
2023-05-11T20:06:57.859Z,14.60
2023-05-11T20:09:25.525Z,14.58
2023-05-11T20:11:52.347Z,14.49
2023-05-11T20:14:19.297Z,14.52
2023-05-11T20:16:46.189Z,14.50
2023-05-11T20:19:13.075Z,14.46
2023-05-11T20:21:39.995Z,14.48
2023-05-11T20:24:06.954Z,14.46
2023-05-11T20:26:33.788Z,14.32
2023-05-11T20:29:00.695Z,14.36
2023-05-11T20:31:27.620Z,14.36
2023-05-11T20:36:25.549Z,14.36
2023-05-11T20:38:55.201Z,14.34
2023-05-11T20:41:22.173Z,14.33
2023-05-11T20:43:48.978Z,14.30
2023-05-11T20:46:15.832Z,14.07
2023-05-11T20:48:45.622Z,14.27
2023-05-11T20:51:14.917Z,14.30
2023-05-11T20:53:41.772Z,14.28
2023-05-11T20:56:10.088Z,14.28
2023-05-11T20:58:36.963Z,14.25
2023-05-11T21:01:03.861Z,14.14
2023-05-11T21:03:30.880Z,14.23
2023-05-11T21:05:57.797Z,14.19
2023-05-11T21:08:24.682Z,14.13
2023-05-11T21:10:51.476Z,14.20
2023-05-11T21:13:18.268Z,14.18
2023-05-11T21:15:45.202Z,14.08
2023-05-11T21:18:12.413Z,14.09
2023-05-11T21:20:39.336Z,14.07
2023-05-11T21:23:06.139Z,14.09
2023-05-11T21:25:33.050Z,14.04
2023-05-11T21:28:00.952Z,14.10
2023-05-11T21:30:28.187Z,14.12
2023-05-11T21:32:55.128Z,14.10
2023-05-11T21:35:22.067Z,14.08
2023-05-11T21:37:50.103Z,14.04
2023-05-11T21:40:18.068Z,14.06
2023-05-11T21:42:45.316Z,14.02
2023-05-11T21:45:12.487Z,14.04
2023-05-11T21:47:39.530Z,14.00
2023-05-11T21:50:08.508Z,14.02
2023-05-11T21:52:36.767Z,14.02
2023-05-11T21:55:04.433Z,13.97
2023-05-11T21:57:31.272Z,14.07
2023-05-11T21:59:58.096Z,14.07
2023-05-11T22:02:24.935Z,13.98
2023-05-11T22:04:51.975Z,13.95
2023-05-11T22:07:19.862Z,13.83
2023-05-11T22:09:46.689Z,13.89
2023-05-11T22:12:13.499Z,13.93
2023-05-11T22:14:41.365Z,13.92
2023-05-11T22:17:08.247Z,13.93
2023-05-11T22:19:35.074Z,13.94
2023-05-11T22:22:02.227Z,13.95
2023-05-11T22:24:29.068Z,13.93
2023-05-11T22:26:56.576Z,13.92
2023-05-11T22:29:23.495Z,13.96
2023-05-11T22:31:50.423Z,13.84
2023-05-11T22:34:17.304Z,13.85
2023-05-11T22:36:44.183Z,13.83
2023-05-11T22:39:11.449Z,13.87
2023-05-11T22:41:38.600Z,13.85
2023-05-11T22:44:05.736Z,13.75
2023-05-11T22:46:32.679Z,13.86
2023-05-11T22:48:59.620Z,13.91
2023-05-11T22:51:27.083Z,13.87
2023-05-11T22:53:54.960Z,13.88
2023-05-11T22:56:22.245Z,13.87
2023-05-11T22:58:49.671Z,13.86
2023-05-11T23:01:16.625Z,13.89
2023-05-11T23:03:43.451Z,13.86
2023-05-11T23:06:10.276Z,13.70
2023-05-11T23:08:37.078Z,13.82
2023-05-11T23:11:04.667Z,13.83
2023-05-11T23:13:31.474Z,13.84
2023-05-11T23:15:58.339Z,13.83
2023-05-11T23:18:25.317Z,13.85
2023-05-11T23:20:56.840Z,13.85
2023-05-11T23:23:24.406Z,13.79
2023-05-11T23:25:52.058Z,13.83
2023-05-11T23:28:19.542Z,13.83
2023-05-11T23:30:46.531Z,13.75
2023-05-11T23:33:14.521Z,13.83
2023-05-11T23:35:41.616Z,13.78
2023-05-11T23:38:08.481Z,13.78
2023-05-11T23:40:35.592Z,13.74
2023-05-11T23:43:02.509Z,13.68
2023-05-11T23:45:29.293Z,13.70
2023-05-11T23:47:56.247Z,13.71
2023-05-11T23:50:23.367Z,13.60
2023-05-11T23:52:50.309Z,13.60
2023-05-11T23:55:17.146Z,13.65
2023-05-11T23:57:44.727Z,13.68
